createdAt,value
2023-01-09T00:00:09.529Z,8
2023-01-09T00:01:09.490Z,8
2023-01-09T00:02:09.550Z,8
2023-01-09T00:03:09.492Z,8
2023-01-09T00:04:09.506Z,8
2023-01-09T00:05:09.489Z,8.1
2023-01-09T00:06:09.486Z,8.1
2023-01-09T00:07:09.488Z,8.1
2023-01-09T00:08:09.565Z,8.1
2023-01-09T00:09:09.844Z,8.1
2023-01-09T00:10:09.501Z,8.1
2023-01-09T00:11:09.489Z,8.1
2023-01-09T00:12:09.487Z,8.1
2023-01-09T00:13:09.495Z,8.1
2023-01-09T00:14:11.020Z,8.1
2023-01-09T00:15:09.671Z,8.2
2023-01-09T00:16:09.509Z,8.2
2023-01-09T00:17:09.485Z,8.2
2023-01-09T00:18:09.486Z,8.2
2023-01-09T00:19:09.489Z,8.2
2023-01-09T00:20:09.507Z,8.2
2023-01-09T00:21:09.516Z,8.2
2023-01-09T00:22:09.490Z,8.2
2023-01-09T00:23:09.483Z,8.2
2023-01-09T00:24:09.497Z,8.3
2023-01-09T00:25:09.485Z,8.2
2023-01-09T00:26:09.512Z,8.3
2023-01-09T00:27:09.488Z,8.2
2023-01-09T00:28:09.490Z,8.2
2023-01-09T00:29:09.592Z,8.2
2023-01-09T00:30:09.487Z,8.2
2023-01-09T00:31:09.610Z,8.2
2023-01-09T00:32:09.496Z,8.2
2023-01-09T00:33:09.485Z,8.2
2023-01-09T00:34:09.490Z,8.2
2023-01-09T00:35:09.506Z,8.1
2023-01-09T00:36:09.492Z,8.1
2023-01-09T00:37:09.483Z,8
2023-01-09T00:38:09.488Z,8
2023-01-09T00:39:09.482Z,7.9
2023-01-09T00:40:09.516Z,7.9
2023-01-09T00:41:09.494Z,7.8
2023-01-09T00:42:09.492Z,7.8
2023-01-09T00:43:09.487Z,7.7
2023-01-09T00:44:09.498Z,7.7
2023-01-09T00:45:09.511Z,7.7
2023-01-09T00:46:09.544Z,7.7
2023-01-09T00:47:09.490Z,7.7
2023-01-09T00:48:09.488Z,7.6
2023-01-09T00:49:09.507Z,7.6
2023-01-09T00:50:09.527Z,7.5
2023-01-09T00:51:09.496Z,7.5
2023-01-09T00:52:09.485Z,7.5
2023-01-09T00:53:09.491Z,7.4
2023-01-09T00:54:09.498Z,7.4
2023-01-09T00:55:09.524Z,7.4
2023-01-09T00:56:09.485Z,7.3
2023-01-09T00:57:09.494Z,7.3
2023-01-09T00:58:09.495Z,7.3
2023-01-09T00:59:09.489Z,7.2
2023-01-09T01:00:09.514Z,7.2
2023-01-09T01:01:09.614Z,7.2
2023-01-09T01:02:09.648Z,7.2
2023-01-09T01:03:09.486Z,7.2
2023-01-09T01:04:09.485Z,7.2
2023-01-09T01:05:09.501Z,7.2
2023-01-09T01:06:09.489Z,7.2
2023-01-09T01:07:09.487Z,7.2
2023-01-09T01:08:09.486Z,7.2
2023-01-09T01:09:09.492Z,7.2
2023-01-09T01:10:09.499Z,7.2
2023-01-09T01:11:09.489Z,7.1
2023-01-09T01:12:09.486Z,7.1
2023-01-09T01:13:09.490Z,7.1
2023-01-09T01:14:09.486Z,7.1
2023-01-09T01:15:09.504Z,7.1
2023-01-09T01:16:09.485Z,7.1
2023-01-09T01:17:09.486Z,7.1
2023-01-09T01:18:09.486Z,7.1
2023-01-09T01:19:09.484Z,7
2023-01-09T01:20:09.491Z,7
2023-01-09T01:21:09.486Z,7
2023-01-09T01:22:09.487Z,7
2023-01-09T01:23:09.484Z,6.9
2023-01-09T01:24:09.482Z,6.9
2023-01-09T01:25:09.603Z,6.8
2023-01-09T01:26:10.017Z,6.8
2023-01-09T01:27:10.198Z,6.8
2023-01-09T01:28:09.711Z,6.7
2023-01-09T01:29:09.492Z,6.7
2023-01-09T01:30:09.491Z,6.7
2023-01-09T01:31:09.530Z,6.7
2023-01-09T01:32:09.482Z,6.6
2023-01-09T01:33:09.485Z,6.6
2023-01-09T01:34:09.490Z,6.6
2023-01-09T01:35:09.487Z,6.6
2023-01-09T01:36:09.516Z,6.6
2023-01-09T01:37:09.485Z,6.6
2023-01-09T01:38:09.488Z,6.6
2023-01-09T01:39:09.486Z,6.6
2023-01-09T01:40:09.495Z,6.6
2023-01-09T01:41:09.503Z,6.5
2023-01-09T01:42:09.484Z,6.5
2023-01-09T01:43:09.487Z,6.5
2023-01-09T01:44:09.487Z,6.5
2023-01-09T01:45:09.504Z,6.5
2023-01-09T01:46:09.509Z,6.5
2023-01-09T01:47:09.503Z,6.5
2023-01-09T01:48:09.523Z,6.4
2023-01-09T01:49:09.484Z,6.5
2023-01-09T01:50:09.492Z,6.5
2023-01-09T01:51:09.486Z,6.4
2023-01-09T01:52:09.495Z,6.5
2023-01-09T01:53:09.498Z,6.4
2023-01-09T01:54:09.608Z,6.5
2023-01-09T01:55:09.501Z,6.4
2023-01-09T01:56:09.497Z,6.4
2023-01-09T01:57:09.487Z,6.4
2023-01-09T01:58:09.488Z,6.4
2023-01-09T01:59:09.492Z,6.4
2023-01-09T02:00:09.482Z,6.4
2023-01-09T02:01:09.546Z,6.4
2023-01-09T02:02:09.682Z,6.4
2023-01-09T02:03:09.836Z,6.4
2023-01-09T02:04:09.490Z,6.4
2023-01-09T02:05:09.487Z,6.4
2023-01-09T02:06:09.493Z,6.4
2023-01-09T02:07:09.505Z,6.4
2023-01-09T02:08:09.496Z,6.4
2023-01-09T02:09:09.496Z,6.4
2023-01-09T02:10:09.493Z,6.4
2023-01-09T02:11:09.483Z,6.4
2023-01-09T02:12:09.490Z,6.4
2023-01-09T02:13:09.483Z,6.4
2023-01-09T02:14:09.482Z,6.4
2023-01-09T02:15:09.555Z,6.4
2023-01-09T02:16:09.596Z,6.4
2023-01-09T02:17:09.481Z,6.4
2023-01-09T02:18:09.481Z,6.4
2023-01-09T02:19:09.493Z,6.4
2023-01-09T02:20:09.509Z,6.4
2023-01-09T02:21:09.650Z,6.4
2023-01-09T02:22:10.943Z,6.4
2023-01-09T02:23:09.509Z,6.4
2023-01-09T02:24:09.485Z,6.4
2023-01-09T02:25:09.503Z,6.4
2023-01-09T02:26:09.482Z,6.4
2023-01-09T02:27:09.488Z,6.4
2023-01-09T02:28:09.491Z,6.3
2023-01-09T02:29:09.485Z,6.3
2023-01-09T02:30:09.527Z,6.3
2023-01-09T02:31:09.522Z,6.3
2023-01-09T02:32:09.492Z,6.3
2023-01-09T02:33:09.489Z,6.3
2023-01-09T02:34:09.489Z,6.3
2023-01-09T02:35:09.504Z,6.3
2023-01-09T02:36:09.483Z,6.3
2023-01-09T02:37:09.486Z,6.3
2023-01-09T02:38:09.509Z,6.3
2023-01-09T02:39:09.551Z,6.3
2023-01-09T02:40:09.496Z,6.4
2023-01-09T02:41:09.711Z,6.4
2023-01-09T02:42:10.045Z,6.4
2023-01-09T02:43:10.360Z,6.4
2023-01-09T02:44:09.487Z,6.4
2023-01-09T02:45:09.503Z,6.4
2023-01-09T02:46:09.527Z,6.4
2023-01-09T02:47:09.492Z,6.4
2023-01-09T02:48:09.492Z,6.4
2023-01-09T02:49:09.481Z,6.4
2023-01-09T02:50:09.499Z,6.4
2023-01-09T02:51:09.488Z,6.4
2023-01-09T02:52:09.487Z,6.4
2023-01-09T02:53:09.487Z,6.5
2023-01-09T02:54:09.481Z,6.5
2023-01-09T02:55:09.499Z,6.5
2023-01-09T02:56:09.489Z,6.4
2023-01-09T02:57:09.485Z,6.4
2023-01-09T02:58:09.685Z,6.5
2023-01-09T02:59:09.499Z,6.5
2023-01-09T03:00:09.829Z,6.5
2023-01-09T03:01:09.717Z,6.5
2023-01-09T03:02:09.492Z,6.5
2023-01-09T03:03:09.752Z,6.5
2023-01-09T03:04:09.481Z,6.5
2023-01-09T03:05:09.823Z,6.5
2023-01-09T03:06:09.530Z,6.5
2023-01-09T03:07:09.871Z,6.5
2023-01-09T03:08:10.101Z,6.5
2023-01-09T03:09:09.485Z,6.5
2023-01-09T03:10:09.835Z,6.5
2023-01-09T03:11:09.648Z,6.5
2023-01-09T03:12:09.486Z,6.5
2023-01-09T03:13:09.488Z,6.5
2023-01-09T03:14:09.502Z,6.5
2023-01-09T03:15:09.488Z,6.5
2023-01-09T03:16:09.538Z,6.5
2023-01-09T03:17:09.489Z,6.5
2023-01-09T03:18:09.494Z,6.5
2023-01-09T03:19:09.500Z,6.5
2023-01-09T03:20:09.509Z,6.5
2023-01-09T03:21:09.488Z,6.5
2023-01-09T03:22:09.490Z,6.5
2023-01-09T03:23:09.482Z,6.5
2023-01-09T03:24:09.486Z,6.5
2023-01-09T03:25:09.514Z,6.4
2023-01-09T03:26:09.481Z,6.4
2023-01-09T03:27:09.495Z,6.4
2023-01-09T03:28:09.488Z,6.4
2023-01-09T03:29:09.483Z,6.4
2023-01-09T03:30:09.510Z,6.4
2023-01-09T03:31:09.559Z,6.4
2023-01-09T03:32:09.492Z,6.3
2023-01-09T03:33:09.482Z,6.3
2023-01-09T03:34:09.492Z,6.3
2023-01-09T03:35:09.511Z,6.3
2023-01-09T03:36:09.486Z,6.2
2023-01-09T03:37:09.488Z,6.2
2023-01-09T03:38:09.486Z,6.2
2023-01-09T03:39:09.496Z,6.1
2023-01-09T03:40:09.519Z,6.1
2023-01-09T03:41:09.482Z,6.1
2023-01-09T03:42:09.503Z,6.1
2023-01-09T03:43:09.643Z,6.1
2023-01-09T03:44:09.954Z,6.1
2023-01-09T03:45:09.511Z,6.1
2023-01-09T03:46:09.552Z,6.1
2023-01-09T03:47:09.500Z,6.1
2023-01-09T03:48:09.492Z,6.1
2023-01-09T03:49:09.498Z,6.1
2023-01-09T03:50:09.519Z,6.1
2023-01-09T03:51:09.492Z,6.2
2023-01-09T03:52:09.494Z,6.1
2023-01-09T03:53:09.483Z,6.1
2023-01-09T03:54:09.489Z,6.1
2023-01-09T03:55:09.487Z,6.1
2023-01-09T03:56:09.494Z,6.1
2023-01-09T03:57:09.486Z,6
2023-01-09T03:58:09.488Z,6
2023-01-09T03:59:09.489Z,5.9
2023-01-09T04:00:09.483Z,5.9
2023-01-09T04:01:09.683Z,5.9
2023-01-09T04:02:09.583Z,5.8
2023-01-09T04:03:09.486Z,5.8
2023-01-09T04:04:09.563Z,5.7
2023-01-09T04:05:09.500Z,5.7
2023-01-09T04:06:09.492Z,5.7
2023-01-09T04:07:09.485Z,5.7
2023-01-09T04:08:09.483Z,5.7
2023-01-09T04:09:09.494Z,5.6
2023-01-09T04:10:09.503Z,5.6
2023-01-09T04:11:09.490Z,5.6
2023-01-09T04:12:09.565Z,5.6
2023-01-09T04:13:09.482Z,5.6
2023-01-09T04:14:09.481Z,5.7
2023-01-09T04:15:09.487Z,5.7
2023-01-09T04:16:09.500Z,5.7
2023-01-09T04:17:09.507Z,5.7
2023-01-09T04:18:09.487Z,5.7
2023-01-09T04:19:09.485Z,5.8
2023-01-09T04:20:09.487Z,5.8
2023-01-09T04:21:09.487Z,5.9
2023-01-09T04:22:09.491Z,5.9
2023-01-09T04:23:09.497Z,6
2023-01-09T04:24:09.492Z,6
2023-01-09T04:25:09.490Z,6.1
2023-01-09T04:26:09.513Z,6.1
2023-01-09T04:27:09.600Z,6.1
2023-01-09T04:28:09.493Z,6.1
2023-01-09T04:29:09.487Z,6.2
2023-01-09T04:30:09.490Z,6.2
2023-01-09T04:31:09.486Z,6.3
2023-01-09T04:32:09.489Z,6.3
2023-01-09T04:33:09.490Z,6.3
2023-01-09T04:34:09.485Z,6.3
2023-01-09T04:35:09.493Z,6.3
2023-01-09T04:36:09.491Z,6.3
2023-01-09T04:37:09.568Z,6.3
2023-01-09T04:38:09.485Z,6.4
2023-01-09T04:39:09.486Z,6.4
2023-01-09T04:40:09.484Z,6.4
2023-01-09T04:41:09.579Z,6.4
2023-01-09T04:42:09.489Z,6.4
2023-01-09T04:43:09.492Z,6.4
2023-01-09T04:44:09.488Z,6.4
2023-01-09T04:45:09.503Z,6.4
2023-01-09T04:46:09.508Z,6.4
2023-01-09T04:47:09.482Z,6.4
2023-01-09T04:48:09.483Z,6.4
2023-01-09T04:49:09.485Z,6.4
2023-01-09T04:50:09.491Z,6.4
2023-01-09T04:51:09.503Z,6.4
2023-01-09T04:52:09.510Z,6.4
2023-01-09T04:53:09.508Z,6.4
2023-01-09T04:54:09.500Z,6.3
2023-01-09T04:55:09.511Z,6.3
2023-01-09T04:56:09.491Z,6.2
2023-01-09T04:57:09.492Z,6.2
2023-01-09T04:58:09.797Z,6.1
2023-01-09T04:59:10.107Z,6.1
2023-01-09T05:00:09.518Z,6.1
2023-01-09T05:01:09.911Z,6.1
2023-01-09T05:02:09.553Z,6.1
2023-01-09T05:03:09.503Z,6.1
2023-01-09T05:04:09.505Z,6.1
2023-01-09T05:05:11.479Z,6.1
2023-01-09T05:06:09.491Z,6.1
2023-01-09T05:07:09.491Z,6.1
2023-01-09T05:08:09.492Z,6.1
2023-01-09T05:09:09.489Z,6.1
2023-01-09T05:10:09.608Z,6.1
2023-01-09T05:11:09.488Z,6.1
2023-01-09T05:12:09.492Z,6.1
2023-01-09T05:13:09.488Z,6.1
2023-01-09T05:14:09.509Z,6.1
2023-01-09T05:15:09.500Z,6.1
2023-01-09T05:16:09.499Z,6.1
2023-01-09T05:17:09.487Z,6
2023-01-09T05:18:09.482Z,6
2023-01-09T05:19:09.483Z,6
2023-01-09T05:20:09.510Z,5.9
2023-01-09T05:21:09.486Z,5.9
2023-01-09T05:22:09.488Z,5.9
2023-01-09T05:23:09.546Z,5.8
2023-01-09T05:24:09.494Z,5.8
2023-01-09T05:25:09.507Z,5.8
2023-01-09T05:26:09.511Z,5.8
2023-01-09T05:27:09.490Z,5.7
2023-01-09T05:28:09.487Z,5.7
2023-01-09T05:29:09.486Z,5.7
2023-01-09T05:30:09.487Z,5.7
2023-01-09T05:31:09.499Z,5.6
2023-01-09T05:32:09.497Z,5.6
2023-01-09T05:33:09.486Z,5.5
2023-01-09T05:34:09.492Z,5.5
2023-01-09T05:35:09.497Z,5.4
2023-01-09T05:36:09.488Z,5.4
2023-01-09T05:37:09.490Z,5.3
2023-01-09T05:38:09.673Z,5.3
2023-01-09T05:39:09.484Z,5.2
2023-01-09T05:40:09.517Z,5.2
2023-01-09T05:41:09.485Z,5.2
2023-01-09T05:42:09.482Z,5.2
2023-01-09T05:43:09.487Z,5.1
2023-01-09T05:44:09.486Z,5.1
2023-01-09T05:45:09.493Z,5
2023-01-09T05:46:09.541Z,5
2023-01-09T05:47:09.504Z,4.9
2023-01-09T05:48:09.484Z,4.9
2023-01-09T05:49:09.483Z,4.8
2023-01-09T05:50:09.485Z,4.8
2023-01-09T05:51:09.491Z,4.8
2023-01-09T05:52:09.523Z,4.8
2023-01-09T05:53:09.486Z,4.8
2023-01-09T05:54:09.503Z,4.7
2023-01-09T05:55:09.486Z,4.7
2023-01-09T05:56:11.313Z,4.7
2023-01-09T05:57:09.510Z,4.7
2023-01-09T05:58:09.500Z,4.6
2023-01-09T05:59:09.483Z,4.6
2023-01-09T06:00:09.501Z,4.6
2023-01-09T06:01:09.545Z,4.6
2023-01-09T06:02:09.544Z,4.6
2023-01-09T06:03:09.536Z,4.6
2023-01-09T06:04:09.522Z,4.6
2023-01-09T06:05:09.488Z,4.6
2023-01-09T06:06:09.628Z,4.6
2023-01-09T06:07:09.496Z,4.6
2023-01-09T06:08:09.486Z,4.5
2023-01-09T06:09:09.490Z,4.5
2023-01-09T06:10:09.490Z,4.5
2023-01-09T06:11:09.503Z,4.5
2023-01-09T06:12:09.487Z,4.5
2023-01-09T06:13:09.482Z,4.4
2023-01-09T06:14:09.480Z,4.4
2023-01-09T06:15:09.506Z,4.4
2023-01-09T06:16:09.832Z,4.4
2023-01-09T06:17:10.079Z,4.4
2023-01-09T06:18:10.356Z,4.4
2023-01-09T06:19:09.488Z,4.4
2023-01-09T06:20:09.510Z,4.4
2023-01-09T06:21:09.585Z,4.3
2023-01-09T06:22:09.484Z,4.3
2023-01-09T06:23:09.485Z,4.3
2023-01-09T06:24:09.499Z,4.3
2023-01-09T06:25:09.504Z,4.2
2023-01-09T06:26:09.487Z,4.2
2023-01-09T06:27:09.487Z,4.2
2023-01-09T06:28:09.481Z,4.2
2023-01-09T06:29:09.483Z,4.2
2023-01-09T06:30:09.501Z,4.2
2023-01-09T06:31:09.532Z,4.2
2023-01-09T06:32:09.486Z,4.2
2023-01-09T06:33:09.484Z,4.2
2023-01-09T06:34:09.493Z,4.2
2023-01-09T06:35:09.486Z,4.3
2023-01-09T06:36:09.481Z,4.3
2023-01-09T06:37:09.480Z,4.3
2023-01-09T06:38:09.489Z,4.4
2023-01-09T06:39:09.481Z,4.4
2023-01-09T06:40:09.488Z,4.4
2023-01-09T06:41:09.483Z,4.5
2023-01-09T06:42:09.559Z,4.5
2023-01-09T06:43:09.881Z,4.6
2023-01-09T06:44:10.056Z,4.7
2023-01-09T06:45:09.480Z,4.7
2023-01-09T06:46:09.834Z,4.8
2023-01-09T06:47:09.505Z,4.8
2023-01-09T06:48:09.508Z,4.8
2023-01-09T06:49:10.017Z,4.9
2023-01-09T06:50:09.500Z,5
2023-01-09T06:51:09.483Z,5
2023-01-09T06:52:09.500Z,5.1
2023-01-09T06:53:09.484Z,5.1
2023-01-09T06:54:09.486Z,5.2
2023-01-09T06:55:09.485Z,5.2
2023-01-09T06:56:09.497Z,5.2
2023-01-09T06:57:09.482Z,5.3
2023-01-09T06:58:09.479Z,5.3
2023-01-09T06:59:09.496Z,5.4
2023-01-09T07:00:09.489Z,5.4
2023-01-09T07:01:09.541Z,5.5
2023-01-09T07:02:09.569Z,5.5
2023-01-09T07:03:09.485Z,5.5
2023-01-09T07:04:09.525Z,5.6
2023-01-09T07:05:09.482Z,5.6
2023-01-09T07:06:09.504Z,5.6
2023-01-09T07:07:09.488Z,5.6
2023-01-09T07:08:09.484Z,5.7
2023-01-09T07:09:09.486Z,5.7
2023-01-09T07:10:09.481Z,5.7
2023-01-09T07:11:09.517Z,5.7
2023-01-09T07:12:09.490Z,5.7
2023-01-09T07:13:09.484Z,5.7
2023-01-09T07:14:09.488Z,5.7
2023-01-09T07:15:09.501Z,5.7
2023-01-09T07:16:09.621Z,5.7
2023-01-09T07:17:09.491Z,5.6
2023-01-09T07:18:09.651Z,5.6
2023-01-09T07:19:09.497Z,5.6
2023-01-09T07:20:09.487Z,5.6
2023-01-09T07:21:09.488Z,5.6
2023-01-09T07:22:09.483Z,5.5
2023-01-09T07:23:09.485Z,5.6
2023-01-09T07:24:09.624Z,5.6
2023-01-09T07:25:09.486Z,5.6
2023-01-09T07:26:09.640Z,5.6
2023-01-09T07:27:09.535Z,5.6
2023-01-09T07:28:10.108Z,5.6
2023-01-09T07:29:10.048Z,5.6
2023-01-09T07:30:09.484Z,5.7
2023-01-09T07:31:09.842Z,5.7
2023-01-09T07:32:09.830Z,5.7
2023-01-09T07:33:10.038Z,5.7
2023-01-09T07:34:09.488Z,5.7
2023-01-09T07:35:09.488Z,5.7
2023-01-09T07:36:09.490Z,5.7
2023-01-09T07:37:09.482Z,5.7
2023-01-09T07:38:09.489Z,5.7
2023-01-09T07:39:09.487Z,5.8
2023-01-09T07:40:09.488Z,5.8
2023-01-09T07:41:09.490Z,5.8
2023-01-09T07:42:09.489Z,5.8
2023-01-09T07:43:09.490Z,5.9
2023-01-09T07:44:11.133Z,5.9
2023-01-09T07:45:09.500Z,5.9
2023-01-09T07:46:09.516Z,5.9
2023-01-09T07:47:09.492Z,5.9
2023-01-09T07:48:09.485Z,5.9
2023-01-09T07:49:09.483Z,5.9
2023-01-09T07:50:09.481Z,6
2023-01-09T07:51:09.482Z,6
2023-01-09T07:52:09.491Z,6
2023-01-09T07:53:09.498Z,6
2023-01-09T07:54:09.490Z,6
2023-01-09T07:55:09.485Z,6
2023-01-09T07:56:09.484Z,6
2023-01-09T07:57:09.487Z,5.9
2023-01-09T07:58:09.483Z,5.9
2023-01-09T07:59:09.488Z,5.9
2023-01-09T08:00:09.498Z,5.9
2023-01-09T08:01:09.583Z,5.8
2023-01-09T08:02:09.571Z,5.8
2023-01-09T08:03:09.531Z,5.8
2023-01-09T08:04:09.493Z,5.8
2023-01-09T08:05:09.491Z,5.8
2023-01-09T08:06:09.488Z,5.8
2023-01-09T08:07:09.497Z,5.9
2023-01-09T08:08:09.482Z,5.9
2023-01-09T08:09:09.501Z,5.9
2023-01-09T08:10:09.488Z,5.9
2023-01-09T08:11:09.492Z,5.9
2023-01-09T08:12:09.507Z,5.9
2023-01-09T08:13:09.497Z,5.9
2023-01-09T08:14:09.485Z,6
2023-01-09T08:15:09.487Z,6
2023-01-09T08:16:09.625Z,6
2023-01-09T08:17:09.496Z,6
2023-01-09T08:18:09.485Z,6
2023-01-09T08:19:09.485Z,6.1
2023-01-09T08:20:09.491Z,6.1
2023-01-09T08:21:09.485Z,6.1
2023-01-09T08:22:09.485Z,6.1
2023-01-09T08:23:09.492Z,6.1
2023-01-09T08:24:09.501Z,6.1
2023-01-09T08:25:11.942Z,6.1
2023-01-09T08:26:09.490Z,6.1
2023-01-09T08:27:09.491Z,6.2
2023-01-09T08:28:09.491Z,6.2
2023-01-09T08:29:09.483Z,6.2
2023-01-09T08:30:09.494Z,6.2
2023-01-09T08:31:09.516Z,6.2
2023-01-09T08:32:09.571Z,6.2
2023-01-09T08:33:09.894Z,6.2
2023-01-09T08:34:10.100Z,6.2
2023-01-09T08:35:09.512Z,6.2
2023-01-09T08:36:09.838Z,6.2
2023-01-09T08:37:09.512Z,6.2
2023-01-09T08:38:09.499Z,6.1
2023-01-09T08:39:09.495Z,6.1
2023-01-09T08:40:09.500Z,6.1
2023-01-09T08:41:09.487Z,6.1
2023-01-09T08:42:09.508Z,6.1
2023-01-09T08:43:09.488Z,6.1
2023-01-09T08:44:09.488Z,6.1
2023-01-09T08:45:09.493Z,6.1
2023-01-09T08:46:09.516Z,6.1
2023-01-09T08:47:09.510Z,6.1
2023-01-09T08:48:09.487Z,6.1
2023-01-09T08:49:09.498Z,6.1
2023-01-09T08:50:09.513Z,6.1
2023-01-09T08:51:09.492Z,6.1
2023-01-09T08:52:09.522Z,6
2023-01-09T08:53:09.492Z,6
2023-01-09T08:54:09.706Z,6
2023-01-09T08:55:09.492Z,6
2023-01-09T08:56:09.484Z,6
2023-01-09T08:57:09.514Z,6
2023-01-09T08:58:09.491Z,5.9
2023-01-09T08:59:09.519Z,6
2023-01-09T09:00:09.484Z,6
2023-01-09T09:01:09.496Z,6
2023-01-09T09:02:09.488Z,6.1
2023-01-09T09:03:09.508Z,6.1
2023-01-09T09:04:09.495Z,6.1
2023-01-09T09:05:09.514Z,6.2
2023-01-09T09:06:09.490Z,6.2
2023-01-09T09:07:09.487Z,6.2
2023-01-09T09:08:09.515Z,6.3
2023-01-09T09:09:09.512Z,6.3
2023-01-09T09:10:09.484Z,6.3
2023-01-09T09:11:09.495Z,6.3
2023-01-09T09:12:09.491Z,6.4
2023-01-09T09:13:09.500Z,6.4
2023-01-09T09:14:09.493Z,6.4
2023-01-09T09:15:09.524Z,6.5
2023-01-09T09:16:09.553Z,6.5
2023-01-09T09:17:09.495Z,6.5
2023-01-09T09:18:09.486Z,6.6
2023-01-09T09:19:09.499Z,6.6
2023-01-09T09:20:09.504Z,6.6
2023-01-09T09:21:11.400Z,6.7
2023-01-09T09:22:09.582Z,6.7
2023-01-09T09:23:09.487Z,6.8
2023-01-09T09:24:09.487Z,6.8
2023-01-09T09:25:09.931Z,6.9
2023-01-09T09:26:09.920Z,6.9
2023-01-09T09:27:09.911Z,6.9
2023-01-09T09:28:09.917Z,6.9
2023-01-09T09:29:09.924Z,6.9
2023-01-09T09:30:09.903Z,7
2023-01-09T09:31:09.929Z,7
2023-01-09T09:32:09.916Z,7
2023-01-09T09:33:09.906Z,7
2023-01-09T09:34:09.920Z,7.1
2023-01-09T09:35:09.959Z,7.1
2023-01-09T09:36:10.111Z,7.2
2023-01-09T09:37:09.946Z,7.2
2023-01-09T09:38:09.912Z,7.2
2023-01-09T09:39:09.921Z,7.2
2023-01-09T09:40:17.784Z,7.3
2023-01-09T09:41:09.913Z,7.4
2023-01-09T09:42:09.897Z,7.5
2023-01-09T09:43:09.926Z,7.5
2023-01-09T09:44:09.910Z,7.6
2023-01-09T09:45:09.944Z,7.6
2023-01-09T09:46:09.944Z,7.6
2023-01-09T09:47:09.916Z,7.7
2023-01-09T09:48:09.928Z,7.7
2023-01-09T09:49:09.923Z,7.7
2023-01-09T09:50:10.098Z,7.7
2023-01-09T09:51:09.991Z,7.7
2023-01-09T09:52:10.066Z,7.7
2023-01-09T09:53:10.362Z,7.7
2023-01-09T09:54:09.484Z,7.7
2023-01-09T09:55:09.508Z,7.7
2023-01-09T09:56:09.491Z,7.7
2023-01-09T09:57:09.489Z,7.7
2023-01-09T09:58:09.483Z,7.7
2023-01-09T09:59:09.492Z,7.7
2023-01-09T10:00:09.506Z,7.7
2023-01-09T10:01:09.507Z,7.7
2023-01-09T10:02:09.550Z,7.7
2023-01-09T10:03:09.526Z,7.7
2023-01-09T10:04:09.497Z,7.7
2023-01-09T10:05:09.491Z,7.8
2023-01-09T10:06:09.502Z,7.8
2023-01-09T10:07:09.648Z,7.8
2023-01-09T10:08:15.636Z,7.8
2023-01-09T10:09:09.488Z,7.9
2023-01-09T10:10:09.491Z,7.9
2023-01-09T10:11:09.495Z,8
2023-01-09T10:12:09.489Z,8
2023-01-09T10:13:09.489Z,8
2023-01-09T10:14:22.736Z,8.1
2023-01-09T10:15:09.491Z,8.1
2023-01-09T10:16:09.532Z,8.2
2023-01-09T10:17:09.604Z,8.2
2023-01-09T10:18:09.499Z,8.3
2023-01-09T10:19:10.299Z,8.4
2023-01-09T10:20:09.499Z,8.4
2023-01-09T10:21:09.828Z,8.5
2023-01-09T10:22:09.486Z,8.5
2023-01-09T10:23:09.488Z,8.6
2023-01-09T10:24:09.493Z,8.7
2023-01-09T10:25:09.489Z,8.7
2023-01-09T10:26:09.496Z,8.7
2023-01-09T10:27:09.492Z,8.8
2023-01-09T10:28:09.491Z,8.8
2023-01-09T10:29:09.489Z,8.8
2023-01-09T10:30:09.491Z,8.8
2023-01-09T10:31:09.531Z,8.9
2023-01-09T10:32:09.505Z,8.9
2023-01-09T10:33:09.507Z,8.9
2023-01-09T10:34:09.518Z,8.9
2023-01-09T10:35:09.483Z,8.9
2023-01-09T10:36:09.515Z,8.9
2023-01-09T10:37:09.588Z,8.8
2023-01-09T10:38:09.491Z,8.8
2023-01-09T10:39:09.486Z,8.8
2023-01-09T10:40:09.488Z,8.8
2023-01-09T10:41:09.487Z,8.8
2023-01-09T10:42:09.487Z,8.7
2023-01-09T10:43:09.483Z,8.8
2023-01-09T10:44:09.491Z,8.8
2023-01-09T10:45:09.539Z,8.8
2023-01-09T10:46:09.553Z,8.8
2023-01-09T10:47:09.509Z,8.9
2023-01-09T10:48:09.585Z,8.9
2023-01-09T10:49:09.486Z,9
2023-01-09T10:50:09.490Z,9
2023-01-09T10:51:09.493Z,9.1
2023-01-09T10:52:09.482Z,9.2
2023-01-09T10:53:09.558Z,9.2
2023-01-09T10:54:09.851Z,9.3
2023-01-09T10:55:09.485Z,9.4
2023-01-09T10:56:09.486Z,9.4
2023-01-09T10:57:09.503Z,9.5
2023-01-09T10:58:09.828Z,9.4
2023-01-09T10:59:09.484Z,9.4
2023-01-09T11:00:09.848Z,9.4
2023-01-09T11:01:09.567Z,9.3
2023-01-09T11:02:09.932Z,9.3
2023-01-09T11:03:10.591Z,9.2
2023-01-09T11:04:09.488Z,9.1
2023-01-09T11:05:09.707Z,9
2023-01-09T11:06:09.486Z,9
2023-01-09T11:07:09.792Z,9
2023-01-09T11:08:09.498Z,9
2023-01-09T11:09:09.493Z,8.9
2023-01-09T11:10:09.501Z,8.9
2023-01-09T11:11:09.495Z,8.9
2023-01-09T11:12:09.487Z,8.8
2023-01-09T11:13:09.491Z,8.8
2023-01-09T11:14:09.491Z,8.8
2023-01-09T11:15:09.493Z,8.8
2023-01-09T11:16:09.679Z,8.8
2023-01-09T11:17:09.558Z,8.8
2023-01-09T11:18:09.482Z,8.8
2023-01-09T11:19:09.487Z,8.8
2023-01-09T11:20:09.495Z,8.8
2023-01-09T11:21:09.492Z,8.8
2023-01-09T11:22:09.546Z,8.8
2023-01-09T11:23:09.489Z,8.8
2023-01-09T11:24:09.491Z,8.9
2023-01-09T11:25:09.495Z,8.9
2023-01-09T11:26:10.972Z,8.9
2023-01-09T11:27:09.503Z,8.9
2023-01-09T11:28:09.487Z,8.9
2023-01-09T11:29:09.495Z,8.9
2023-01-09T11:30:09.489Z,8.9
2023-01-09T11:31:09.663Z,8.9
2023-01-09T11:32:09.517Z,8.9
2023-01-09T11:33:09.495Z,8.9
2023-01-09T11:34:09.489Z,8.9
2023-01-09T11:35:09.490Z,8.9
2023-01-09T11:36:09.491Z,8.9
2023-01-09T11:37:09.544Z,8.9
2023-01-09T11:38:09.483Z,8.9
2023-01-09T11:39:09.489Z,8.9
2023-01-09T11:40:09.491Z,8.9
2023-01-09T11:41:09.489Z,8.9
2023-01-09T11:42:09.495Z,8.9
2023-01-09T11:43:09.485Z,8.8
2023-01-09T11:44:09.489Z,8.8
2023-01-09T11:45:09.487Z,8.8
2023-01-09T11:46:09.767Z,8.8
2023-01-09T11:47:09.488Z,8.8
2023-01-09T11:48:09.483Z,8.8
2023-01-09T11:49:09.489Z,8.8
2023-01-09T11:50:09.501Z,8.7
2023-01-09T11:51:09.491Z,8.7
2023-01-09T11:52:09.491Z,8.7
2023-01-09T11:53:09.486Z,8.7
2023-01-09T11:54:09.490Z,8.7
2023-01-09T11:55:09.483Z,8.6
2023-01-09T11:56:09.489Z,8.6
2023-01-09T11:57:09.492Z,8.6
2023-01-09T11:58:09.486Z,8.6
2023-01-09T11:59:09.488Z,8.6
2023-01-09T12:00:09.496Z,8.6
2023-01-09T12:01:09.485Z,8.6
2023-01-09T12:02:09.519Z,8.6
2023-01-09T12:03:09.517Z,8.6
2023-01-09T12:04:09.487Z,8.6
2023-01-09T12:05:09.501Z,8.5
2023-01-09T12:06:09.489Z,8.5
2023-01-09T12:07:09.488Z,8.6
2023-01-09T12:08:09.768Z,8.5
2023-01-09T12:09:10.003Z,8.5
2023-01-09T12:10:09.495Z,8.5
2023-01-09T12:11:09.683Z,8.5
2023-01-09T12:12:09.512Z,8.5
2023-01-09T12:13:09.491Z,8.5
2023-01-09T12:14:09.548Z,8.5
2023-01-09T12:15:10.086Z,8.5
2023-01-09T12:16:09.544Z,8.4
2023-01-09T12:17:09.526Z,8.4
2023-01-09T12:18:09.535Z,8.4
2023-01-09T12:19:09.488Z,8.4
2023-01-09T12:20:09.481Z,8.4
2023-01-09T12:21:09.490Z,8.4
2023-01-09T12:22:09.509Z,8.4
2023-01-09T12:23:09.488Z,8.4
2023-01-09T12:24:09.508Z,8.5
2023-01-09T12:25:09.489Z,8.5
2023-01-09T12:26:09.492Z,8.5
2023-01-09T12:27:09.516Z,8.5
2023-01-09T12:28:09.754Z,8.5
2023-01-09T12:29:09.488Z,8.6
2023-01-09T12:30:09.489Z,8.6
2023-01-09T12:31:09.686Z,8.6
2023-01-09T12:32:09.526Z,8.6
2023-01-09T12:33:09.714Z,8.5
2023-01-09T12:34:09.493Z,8.5
2023-01-09T12:35:09.503Z,8.5
2023-01-09T12:36:09.507Z,8.5
2023-01-09T12:37:11.474Z,8.5
2023-01-09T12:38:09.486Z,8.5
2023-01-09T12:39:09.494Z,8.4
2023-01-09T12:40:09.505Z,8.4
2023-01-09T12:41:09.559Z,8.4
2023-01-09T12:42:09.498Z,8.4
2023-01-09T12:43:09.487Z,8.4
2023-01-09T12:44:09.482Z,8.4
2023-01-09T12:45:09.490Z,8.4
2023-01-09T12:46:09.555Z,8.4
2023-01-09T12:47:09.486Z,8.4
2023-01-09T12:48:09.485Z,8.4
2023-01-09T12:49:09.494Z,8.3
2023-01-09T12:50:09.503Z,8.3
2023-01-09T12:51:09.486Z,8.3
2023-01-09T12:52:09.490Z,8.3
2023-01-09T12:53:09.489Z,8.3
2023-01-09T12:54:09.871Z,8.3
2023-01-09T12:55:09.485Z,8.2
2023-01-09T12:56:09.508Z,8.2
2023-01-09T12:57:09.494Z,8.2
2023-01-09T12:58:09.495Z,8.2
2023-01-09T12:59:09.486Z,8.2
2023-01-09T13:00:09.487Z,8.3
2023-01-09T13:01:09.503Z,8.3
2023-01-09T13:02:09.513Z,8.3
2023-01-09T13:03:12.709Z,8.3
2023-01-09T13:04:09.488Z,8.3
2023-01-09T13:05:09.500Z,8.3
2023-01-09T13:06:09.490Z,8.3
2023-01-09T13:07:09.507Z,8.3
2023-01-09T13:08:09.491Z,8.3
2023-01-09T13:09:09.504Z,8.4
2023-01-09T13:10:09.681Z,8.4
2023-01-09T13:11:19.224Z,8.4
2023-01-09T13:12:09.497Z,8.4
2023-01-09T13:13:09.486Z,8.4
2023-01-09T13:14:09.495Z,8.4
2023-01-09T13:15:09.497Z,8.4
2023-01-09T13:16:09.601Z,8.4
2023-01-09T13:17:09.492Z,8.5
2023-01-09T13:18:09.487Z,8.4
2023-01-09T13:19:09.531Z,8.4
2023-01-09T13:20:09.811Z,8.4
2023-01-09T13:21:09.485Z,8.4
2023-01-09T13:22:09.486Z,8.4
2023-01-09T13:23:09.487Z,8.4
2023-01-09T13:24:09.492Z,8.4
2023-01-09T13:25:09.491Z,8.4
2023-01-09T13:26:09.497Z,8.4
2023-01-09T13:27:09.486Z,8.3
2023-01-09T13:28:09.483Z,8.3
2023-01-09T13:29:09.489Z,8.2
2023-01-09T13:30:09.484Z,8.1
2023-01-09T13:31:09.483Z,8.1
2023-01-09T13:32:09.489Z,8
2023-01-09T13:33:09.497Z,7.9
2023-01-09T13:34:17.619Z,7.8
2023-01-09T13:35:09.491Z,7.8
2023-01-09T13:36:09.496Z,7.7
2023-01-09T13:37:09.563Z,7.7
2023-01-09T13:38:09.487Z,7.6
2023-01-09T13:39:09.485Z,7.6
2023-01-09T13:40:09.491Z,7.5
2023-01-09T13:41:09.498Z,7.5
2023-01-09T13:42:09.497Z,7.4
2023-01-09T13:43:09.485Z,7.4
2023-01-09T13:44:09.488Z,7.3
2023-01-09T13:45:09.486Z,7.2
2023-01-09T13:46:09.527Z,7.2
2023-01-09T13:47:09.489Z,7.2
2023-01-09T13:48:09.493Z,7.1
2023-01-09T13:49:09.491Z,7.1
2023-01-09T13:50:09.926Z,7